Jacky L O'neal — WDG3892 — position and weather

sailwx.info

Track history (hours):
 
Tides and Currents Weather Stations Pressure Air Temp Water Temp Dewpoint Dewpoint Depression Visibility Wind Speed Wind Dir Waves Ship Positions

Jacky L O'neal

Owner: American Commercial Lines LLC, Jeffersonville, IN. More information available from US FCC via Universal Licensing System and Coast Guard Vessel Documentation Center.

Last reported at 2017-Dec-10 08:30 UTC. Time now 2017-Dec-16 15:04 UTC.
Position N 32°46' W 091°10'.

Length 55 m; draft 3.4 m.

Type: Towing. MMSI: 367530760.

Date/timePositionNaut miles runAvg speedWind from/ knotsBaromVisibWave heightAir tempDewpointWater temp
2017-Dec-10 08:30N 32°46' W 091°10'1 2.3
2017-Dec-10 07:57N 32°45' W 091°09'4 3.9
2017-Dec-10 06:51N 32°44' W 091°04'3 1.5
2017-Dec-10 04:53N 32°41' W 091°04'2 4.2
2017-Dec-10 04:27N 32°40' W 091°06'2 4.3
2017-Dec-10 04:00N 32°40' W 091°08'2 3.9
2017-Dec-10 03:30N 32°38' W 091°09'2 4.0
2017-Dec-10 03:00N 32°36' W 091°08'2 4.2
2017-Dec-10 02:30N 32°34' W 091°07'2 3.7
2017-Dec-10 02:00N 32°33' W 091°06'2 4.1
2017-Dec-10 01:30N 32°31' W 091°07'2 4.7
2017-Dec-10 01:00N 32°28' W 091°06'2 4.4
2017-Dec-10 00:30N 32°27' W 091°05'2 4.3
2017-Dec-10 00:00N 32°26' W 091°02'2 4.2
2017-Dec-09 23:30N 32°25' W 090°60'2 3.5
2017-Dec-09 23:00N 32°23' W 090°60'1 2.8
2017-Dec-09 22:30N 32°22' W 091°00'0 0.4
2017-Dec-09 22:00N 32°22' W 091°00'2 3.6
2017-Dec-09 21:30N 32°21' W 090°59'2 3.8
2017-Dec-09 21:00N 32°21' W 090°56'1 2.7
2017-Dec-09 20:30N 32°21' W 090°55'2 3.5
2017-Dec-09 20:00N 32°19' W 090°54'2 4.8
2017-Dec-09 19:30N 32°17' W 090°56'2 4.4
2017-Dec-09 19:00N 32°16' W 090°58'2 3.5
2017-Dec-09 18:30N 32°14' W 090°59'2 4.3
2017-Dec-09 18:00N 32°12' W 090°59'2 4.0
2017-Dec-09 17:30N 32°10' W 091°00'2 4.3
2017-Dec-09 17:00N 32°08' W 091°00'2 3.9
2017-Dec-09 16:30N 32°07' W 091°03'2 4.4
2017-Dec-09 15:59N 32°08' W 091°05'2 3.2
2017-Dec-09 15:30N 32°07' W 091°06'4 4.4
2017-Dec-09 14:36N 32°03' W 091°03'0 4.0
2017-Dec-09 14:30N 32°03' W 091°03'3 4.5
2017-Dec-09 13:53N 32°00' W 091°05'5 3.9
2017-Dec-09 12:31N 31°59' W 091°11'0 5.1
2017-Dec-09 12:30N 31°59' W 091°11'2 4.2
2017-Dec-09 12:00N 31°56' W 091°11'  
2017-Dec-03 04:47N 31°29' W 091°31'16 7.2
2017-Dec-03 02:33N 31°44' W 091°23'1 8.1
2017-Dec-03 02:28N 31°44' W 091°23'5 8.2
2017-Dec-03 01:50N 31°49' W 091°21'3 6.8
2017-Dec-03 01:21N 31°51' W 091°18'4 7.7
2017-Dec-03 00:50N 31°53' W 091°14'5 7.8
2017-Dec-03 00:15N 31°57' W 091°11'2 8.0
2017-Dec-03 00:00N 31°59' W 091°11'4 7.8
2017-Dec-02 23:30N 31°59' W 091°06'4 7.7
2017-Dec-02 23:00N 32°02' W 091°04'4 7.7
2017-Dec-02 22:30N 32°06' W 091°06'2 4.0
2017-Dec-02 22:00N 32°08' W 091°06'2 4.9
2017-Dec-02 21:30N 32°07' W 091°03'3 5.7
2017-Dec-02 21:00N 32°09' W 091°00'3 6.3
2017-Dec-02 20:30N 32°12' W 090°59'4 8.6
2017-Dec-02 20:00N 32°16' W 090°58'4 8.5
2017-Dec-02 19:30N 32°19' W 090°54'2 3.3
2017-Dec-02 19:00N 32°20' W 090°55'3 6.0
2017-Dec-02 18:30N 32°21' W 090°58'3 5.6
2017-Dec-02 18:00N 32°23' W 090°60'4 7.2
2017-Dec-02 17:30N 32°26' W 091°03'4 8.4
2017-Dec-02 17:00N 32°28' W 091°07'4 8.9
2017-Dec-02 16:30N 32°33' W 091°06'4 8.1
2017-Dec-02 16:00N 32°36' W 091°09'4 7.9
2017-Dec-02 15:30N 32°40' W 091°08'4 2.6
2017-Dec-02 13:56N 32°44' W 091°08'3 6.7
2017-Dec-02 13:30N 32°47' W 091°09'9 6.7
2017-Dec-02 12:07N 32°55' W 091°04'1 8.7
2017-Dec-02 12:00N 32°56' W 091°04'  
Track history (hours):
 
Tides and Currents Weather Stations Pressure Air Temp Water Temp Dewpoint Dewpoint Depression Visibility Wind Speed Wind Dir Waves Ship Positions

Jacky L O'neal

Owner: American Commercial Lines LLC, Jeffersonville, IN. More information available from US FCC via Universal Licensing System and Coast Guard Vessel Documentation Center.

Last reported at 2017-Dec-10 08:30 UTC. Time now 2017-Dec-16 15:04 UTC.
Position N 32°46' W 091°10'.

Length 55 m; draft 3.4 m.

Type: Towing. MMSI: 367530760.

Date/timePositionNaut miles runAvg speedWind from/ knotsBaromVisibWave heightAir tempDewpointWater temp
2017-Dec-10 08:30N 32°46' W 091°10'1 2.3
2017-Dec-10 07:57N 32°45' W 091°09'4 3.9
2017-Dec-10 06:51N 32°44' W 091°04'3 1.5
2017-Dec-10 04:53N 32°41' W 091°04'2 4.2
2017-Dec-10 04:27N 32°40' W 091°06'2 4.3
2017-Dec-10 04:00N 32°40' W 091°08'2 3.9
2017-Dec-10 03:30N 32°38' W 091°09'2 4.0
2017-Dec-10 03:00N 32°36' W 091°08'2 4.2
2017-Dec-10 02:30N 32°34' W 091°07'2 3.7
2017-Dec-10 02:00N 32°33' W 091°06'2 4.1
2017-Dec-10 01:30N 32°31' W 091°07'2 4.7
2017-Dec-10 01:00N 32°28' W 091°06'2 4.4
2017-Dec-10 00:30N 32°27' W 091°05'2 4.3
2017-Dec-10 00:00N 32°26' W 091°02'2 4.2
2017-Dec-09 23:30N 32°25' W 090°60'2 3.5
2017-Dec-09 23:00N 32°23' W 090°60'1 2.8
2017-Dec-09 22:30N 32°22' W 091°00'0 0.4
2017-Dec-09 22:00N 32°22' W 091°00'2 3.6
2017-Dec-09 21:30N 32°21' W 090°59'2 3.8
2017-Dec-09 21:00N 32°21' W 090°56'1 2.7
2017-Dec-09 20:30N 32°21' W 090°55'2 3.5
2017-Dec-09 20:00N 32°19' W 090°54'2 4.8
2017-Dec-09 19:30N 32°17' W 090°56'2 4.4
2017-Dec-09 19:00N 32°16' W 090°58'2 3.5
2017-Dec-09 18:30N 32°14' W 090°59'2 4.3
2017-Dec-09 18:00N 32°12' W 090°59'2 4.0
2017-Dec-09 17:30N 32°10' W 091°00'2 4.3
2017-Dec-09 17:00N 32°08' W 091°00'2 3.9
2017-Dec-09 16:30N 32°07' W 091°03'2 4.4
2017-Dec-09 15:59N 32°08' W 091°05'2 3.2
2017-Dec-09 15:30N 32°07' W 091°06'4 4.4
2017-Dec-09 14:36N 32°03' W 091°03'0 4.0
2017-Dec-09 14:30N 32°03' W 091°03'3 4.5
2017-Dec-09 13:53N 32°00' W 091°05'5 3.9
2017-Dec-09 12:31N 31°59' W 091°11'0 5.1
2017-Dec-09 12:30N 31°59' W 091°11'2 4.2
2017-Dec-09 12:00N 31°56' W 091°11'  
2017-Dec-03 04:47N 31°29' W 091°31'16 7.2
2017-Dec-03 02:33N 31°44' W 091°23'1 8.1
2017-Dec-03 02:28N 31°44' W 091°23'5 8.2
2017-Dec-03 01:50N 31°49' W 091°21'3 6.8
2017-Dec-03 01:21N 31°51' W 091°18'4 7.7
2017-Dec-03 00:50N 31°53' W 091°14'5 7.8
2017-Dec-03 00:15N 31°57' W 091°11'2 8.0
2017-Dec-03 00:00N 31°59' W 091°11'4 7.8
2017-Dec-02 23:30N 31°59' W 091°06'4 7.7
2017-Dec-02 23:00N 32°02' W 091°04'4 7.7
2017-Dec-02 22:30N 32°06' W 091°06'2 4.0
2017-Dec-02 22:00N 32°08' W 091°06'2 4.9
2017-Dec-02 21:30N 32°07' W 091°03'3 5.7
2017-Dec-02 21:00N 32°09' W 091°00'3 6.3
2017-Dec-02 20:30N 32°12' W 090°59'4 8.6
2017-Dec-02 20:00N 32°16' W 090°58'4 8.5
2017-Dec-02 19:30N 32°19' W 090°54'2 3.3
2017-Dec-02 19:00N 32°20' W 090°55'3 6.0
2017-Dec-02 18:30N 32°21' W 090°58'3 5.6
2017-Dec-02 18:00N 32°23' W 090°60'4 7.2
2017-Dec-02 17:30N 32°26' W 091°03'4 8.4
2017-Dec-02 17:00N 32°28' W 091°07'4 8.9
2017-Dec-02 16:30N 32°33' W 091°06'4 8.1
2017-Dec-02 16:00N 32°36' W 091°09'4 7.9
2017-Dec-02 15:30N 32°40' W 091°08'4 2.6
2017-Dec-02 13:56N 32°44' W 091°08'3 6.7
2017-Dec-02 13:30N 32°47' W 091°09'9 6.7
2017-Dec-02 12:07N 32°55' W 091°04'1 8.7
2017-Dec-02 12:00N 32°56' W 091°04'  

Dump ship's entire track history